Time;durP1;ratioP1;P1;durP2;ratioP2;P2;SDS_P1;SDS_P2;PMS_P1;PMS_P2;Temp;Humidity;BMP_temperature;BMP_pressure;BME280_temperature;BME280_humidity;BME280_pressure;Samples;Min_cycle;Max_cycle;Signal;HPM_P1;HPM_P2
2021/05/19 00:02:18;;;;;;;8.93;5.50;;;;;;;7.79;87.66;100724.00;128322;1101;62368;-76
2021/05/19 00:04:45;;;;;;;8.90;5.70;;;;;;;7.79;87.46;100727.47;128296;1101;62277;-75
2021/05/19 00:07:12;;;;;;;7.30;5.67;;;;;;;7.78;87.75;100723.19;128320;1101;62845;-75
2021/05/19 00:09:39;;;;;;;8.33;5.57;;;;;;;7.78;87.85;100723.19;128298;1102;62663;-75
2021/05/19 00:12:07;;;;;;;9.40;6.00;;;;;;;7.78;88.00;100731.11;128320;1101;62110;-75
2021/05/19 00:14:34;;;;;;;12.10;6.00;;;;;;;7.76;88.08;100733.89;128345;1101;62240;-75
2021/05/19 00:17:01;;;;;;;8.43;5.07;;;;;;;7.75;88.04;100724.30;128362;1101;62611;-75
2021/05/19 00:19:28;;;;;;;11.03;6.37;;;;;;;7.76;87.70;100725.97;128348;1101;63173;-75
2021/05/19 00:21:55;;;;;;;10.80;5.50;;;;;;;7.78;87.51;100727.61;128225;1101;62469;-75
2021/05/19 00:24:22;;;;;;;10.13;5.60;;;;;;;7.79;87.45;100718.72;128279;1101;62180;-75
2021/05/19 00:26:49;;;;;;;8.73;5.97;;;;;;;7.81;87.50;100724.68;128298;1101;62646;-75
2021/05/19 00:29:16;;;;;;;10.30;5.90;;;;;;;7.83;87.62;100730.64;128336;1101;62477;-75
2021/05/19 00:31:43;;;;;;;8.90;6.53;;;;;;;7.85;87.93;100728.67;128369;1101;63783;-75
2021/05/19 00:34:12;;;;;;;8.73;6.20;;;;;;;7.88;88.08;100728.34;128290;1101;62199;-74
2021/05/19 00:36:40;;;;;;;9.20;5.47;;;;;;;7.90;87.58;100726.38;128407;1101;62317;-74
2021/05/19 00:39:12;;;;;;;11.07;5.93;;;;;;;7.91;88.01;100717.48;128362;1101;62362;-74
2021/05/19 00:41:41;;;;;;;9.23;6.10;;;;;;;7.92;87.96;100725.23;128349;1095;62725;-75
2021/05/19 00:44:12;;;;;;;11.47;7.17;;;;;;;7.94;87.59;100722.44;128372;1101;62844;-74
2021/05/19 00:46:46;;;;;;;10.43;6.30;;;;;;;7.95;87.43;100726.75;128166;1101;62410;-75
2021/05/19 00:49:13;;;;;;;10.53;6.63;;;;;;;7.90;87.68;100713.17;128288;1101;64083;-74
2021/05/19 00:51:41;;;;;;;10.97;7.23;;;;;;;7.97;88.28;100727.42;128353;1101;64192;-75
2021/05/19 00:54:08;;;;;;;12.47;7.30;;;;;;;7.96;87.75;100720.47;128368;1101;62387;-76
2021/05/19 00:56:40;;;;;;;11.03;6.60;;;;;;;7.99;87.62;100721.95;128308;1101;62930;-75
2021/05/19 00:59:10;;;;;;;9.27;6.40;;;;;;;7.99;87.82;100730.73;128093;1101;62392;-75
2021/05/19 01:01:37;;;;;;;11.27;7.33;;;;;;;7.99;88.04;100721.95;128343;1101;62295;-76
2021/05/19 01:04:04;;;;;;;10.67;7.20;;;;;;;7.96;88.41;100725.75;128352;1101;62720;-75
2021/05/19 01:06:41;;;;;;;10.83;6.50;;;;;;;7.97;88.12;100732.70;128312;1101;62075;-75
2021/05/19 01:11:56;;;;;;;10.33;6.53;;;;;;;7.96;87.99;100725.75;128335;1102;63152;-74
2021/05/19 01:14:23;;;;;;;10.07;7.00;;;;;;;7.96;87.93;100731.85;128320;1102;62705;-75
2021/05/19 01:16:50;;;;;;;10.90;6.83;;;;;;;7.97;88.59;100722.14;128348;1101;63360;-75
2021/05/19 01:19:21;;;;;;;10.07;6.27;;;;;;;7.98;88.12;100726.42;128334;1101;62967;-75
2021/05/19 01:21:52;;;;;;;11.13;6.77;;;;;;;7.97;88.02;100722.14;128326;1101;62917;-74
2021/05/19 01:24:20;;;;;;;14.40;7.37;;;;;;;7.99;87.98;100727.24;128345;1101;62232;-75
2021/05/19 01:26:47;;;;;;;11.67;7.20;;;;;;;7.99;88.96;100729.88;128331;1101;62245;-75
2021/05/19 01:29:15;;;;;;;10.23;6.90;;;;;;;7.99;88.44;100728.09;128345;1101;63984;-75
2021/05/19 01:31:46;;;;;;;9.80;6.17;;;;;;;8.03;88.68;100733.87;128322;1101;62336;-75
2021/05/19 01:34:13;;;;;;;10.80;6.80;;;;;;;8.05;88.84;100729.26;128323;1101;63114;-75
2021/05/19 01:36:41;;;;;;;10.60;6.07;;;;;;;8.06;88.73;100721.18;128334;1101;62358;-75
2021/05/19 01:39:08;;;;;;;11.17;6.50;;;;;;;8.10;88.58;100724.34;128331;1101;62259;-74
2021/05/19 01:41:36;;;;;;;10.57;5.70;;;;;;;8.13;88.77;100727.48;128323;1101;62342;-76
2021/05/19 01:44:15;;;;;;;11.33;7.27;;;;;;;8.16;88.28;100727.18;128328;1101;62319;-75
2021/05/19 01:46:43;;;;;;;10.43;6.60;;;;;;;8.18;88.90;100732.28;128359;1101;62757;-75
2021/05/19 01:49:14;;;;;;;10.77;6.73;;;;;;;8.19;88.10;100725.20;128363;1101;62209;-75
2021/05/19 01:51:41;;;;;;;9.53;5.90;;;;;;;8.21;88.15;100723.23;128278;1101;62076;-75
2021/05/19 01:54:09;;;;;;;7.63;4.60;;;;;;;8.19;88.28;100722.56;128091;1101;62677;-75
2021/05/19 01:56:40;;;;;;;9.83;5.33;;;;;;;8.22;88.46;100732.80;128405;1101;62235;-75
2021/05/19 01:59:07;;;;;;;8.85;5.80;;;;;;;8.22;88.33;100738.09;128302;1101;62843;-75
2021/05/19 02:01:35;;;;;;;10.97;5.47;;;;;;;8.23;88.19;100734.48;128335;1101;62418;-75
2021/05/19 02:04:10;;;;;;;10.80;6.20;;;;;;;8.24;88.35;100744.05;128374;1101;62371;-75
2021/05/19 02:06:55;;;;;;;9.47;5.20;;;;;;;8.27;87.98;100749.03;128346;1101;62235;-75
2021/05/19 02:09:24;;;;;;;11.13;6.10;;;;;;;8.29;87.92;100747.88;128326;1101;62270;-75
2021/05/19 02:11:52;;;;;;;9.53;5.97;;;;;;;8.20;87.53;100722.38;128356;1101;62911;-75
2021/05/19 02:14:21;;;;;;;11.83;6.73;;;;;;;8.35;87.83;100739.32;128317;1101;62162;-75
2021/05/19 02:16:48;;;;;;;10.10;6.40;;;;;;;8.36;87.93;100742.78;128353;1101;62173;-75
2021/05/19 02:19:15;;;;;;;11.13;6.97;;;;;;;8.38;87.94;100741.63;128323;1101;62234;-75
2021/05/19 02:21:44;;;;;;;10.50;6.37;;;;;;;8.40;87.67;100741.48;128364;1101;62229;-75
2021/05/19 02:24:13;;;;;;;10.77;6.40;;;;;;;8.42;87.99;100741.36;128377;1101;62921;-75
2021/05/19 02:26:42;;;;;;;9.50;6.10;;;;;;;8.43;87.89;100749.11;128322;1101;62687;-75
2021/05/19 02:29:10;;;;;;;9.47;6.00;;;;;;;8.44;87.37;100745.49;128385;1101;62269;-75
2021/05/19 02:31:38;;;;;;;9.97;5.97;;;;;;;8.47;87.69;100744.34;128388;1101;62233;-75
2021/05/19 02:34:06;;;;;;;8.87;5.60;;;;;;;8.51;87.68;100741.21;128445;1101;62806;-75
2021/05/19 02:36:34;;;;;;;8.30;4.83;;;;;;;8.52;88.17;100737.59;128354;1101;62967;-75
2021/05/19 02:39:02;;;;;;;10.07;5.97;;;;;;;8.54;87.59;100742.70;128320;1101;62224;-75
2021/05/19 02:41:30;;;;;;;10.83;6.30;;;;;;;8.55;87.94;100736.44;128363;1101;62595;-75
2021/05/19 02:43:57;;;;;;;9.87;5.97;;;;;;;8.56;87.39;100741.58;128323;1101;62132;-75
2021/05/19 02:46:24;;;;;;;11.20;6.53;;;;;;;8.56;87.59;100735.44;128337;1101;62247;-76
2021/05/19 02:48:51;;;;;;;9.40;6.23;;;;;;;8.57;87.48;100740.58;128328;1101;63924;-76
2021/05/19 02:51:18;;;;;;;11.17;6.03;;;;;;;8.57;87.49;100739.75;128340;1101;62262;-75
2021/05/19 02:53:45;;;;;;;8.90;5.80;;;;;;;8.57;87.19;100745.86;128286;1101;62407;-75
2021/05/19 02:56:12;;;;;;;10.63;6.43;;;;;;;8.57;87.25;100745.04;128331;1101;62245;-76
2021/05/19 02:58:39;;;;;;;10.43;6.10;;;;;;;8.57;86.90;100751.15;128291;1101;62326;-76
2021/05/19 03:01:06;;;;;;;9.10;5.93;;;;;;;8.59;87.33;100752.82;128322;1101;62516;-76
2021/05/19 03:03:33;;;;;;;11.87;6.53;;;;;;;8.59;87.48;100751.00;128283;1101;62268;-76
2021/05/19 03:06:00;;;;;;;9.63;5.93;;;;;;;8.58;87.26;100757.26;128385;1101;62140;-76
2021/05/19 03:08:27;;;;;;;12.07;6.83;;;;;;;8.61;87.87;100758.75;128343;1101;62262;-75
2021/05/19 03:10:54;;;;;;;8.10;4.97;;;;;;;8.56;87.77;100754.80;128342;1101;62143;-76
2021/05/19 03:13:21;;;;;;;9.93;5.93;;;;;;;8.55;87.55;100755.77;128357;1101;62903;-76
2021/05/19 03:15:48;;;;;;;9.67;6.33;;;;;;;8.57;87.65;100761.73;128296;1101;62339;-76
2021/05/19 03:18:15;;;;;;;10.97;6.23;;;;;;;8.57;87.83;100761.73;128376;1101;62287;-76
2021/05/19 03:20:43;;;;;;;12.43;6.80;;;;;;;8.61;87.31;100759.59;128338;1101;62572;-76
2021/05/19 03:23:10;;;;;;;7.73;5.40;;;;;;;8.63;87.96;100756.77;128356;1101;62869;-76
2021/05/19 03:25:37;;;;;;;11.47;6.60;;;;;;;8.63;88.46;100768.20;128316;1101;62645;-76
2021/05/19 03:28:04;;;;;;;9.97;6.57;;;;;;;8.63;87.74;100760.27;128316;1101;62303;-76
2021/05/19 03:30:31;;;;;;;8.80;5.83;;;;;;;8.63;88.06;100764.70;128328;1101;62168;-76
2021/05/19 03:32:59;;;;;;;13.07;7.03;;;;;;;8.65;88.00;100760.94;128355;1101;62966;-75
2021/05/19 03:35:26;;;;;;;9.03;5.73;;;;;;;8.68;87.45;100762.42;128391;1101;62297;-74
2021/05/19 03:37:54;;;;;;;10.27;6.03;;;;;;;8.69;87.70;100759.63;128362;1101;63439;-74
2021/05/19 03:40:22;;;;;;;10.90;6.03;;;;;;;8.70;88.01;100763.91;128360;1101;62256;-75
2021/05/19 03:42:49;;;;;;;12.87;6.07;;;;;;;8.70;87.47;100763.09;128415;1101;63677;-75
2021/05/19 03:45:19;;;;;;;7.53;4.93;;;;;;;8.70;88.02;100773.67;128375;1101;62144;-75
2021/05/19 03:47:49;;;;;;;8.07;5.13;;;;;;;8.70;87.96;100773.67;128350;1101;61980;-74
2021/05/19 03:50:17;;;;;;;8.70;5.50;;;;;;;8.71;88.46;100775.31;128389;1101;62488;-75
2021/05/19 03:52:44;;;;;;;11.73;6.77;;;;;;;8.73;87.99;100770.69;128356;1101;62233;-74
2021/05/19 03:55:12;;;;;;;10.07;6.87;;;;;;;8.73;87.42;100771.55;128360;1101;62199;-75
2021/05/19 03:57:40;;;;;;;9.00;5.50;;;;;;;8.74;88.37;100773.19;128387;1101;62677;-75
2021/05/19 04:00:15;;;;;;;11.40;5.77;;;;;;;8.75;87.97;100774.00;128407;1101;62397;-74
2021/05/19 04:02:49;;;;;;;6.93;4.33;;;;;;;8.75;88.15;100774.83;128375;1101;62699;-75
2021/05/19 04:05:22;;;;;;;10.53;5.43;;;;;;;8.75;87.97;100774.83;128326;1101;63638;-76
2021/05/19 04:07:51;;;;;;;7.10;4.87;;;;;;;8.75;87.55;100776.65;128348;1101;62338;-76
2021/05/19 04:10:20;;;;;;;9.43;5.50;;;;;;;8.78;88.45;100774.52;128161;1101;63022;-76
2021/05/19 04:12:48;;;;;;;9.03;4.93;;;;;;;8.78;87.46;100773.70;128335;1101;62181;-77
2021/05/19 04:15:18;;;;;;;9.77;6.63;;;;;;;8.76;87.63;100780.97;128296;1101;62525;-77
2021/05/19 04:17:45;;;;;;;8.77;4.93;;;;;;;8.75;87.83;100784.59;128334;1101;62510;-76
2021/05/19 04:20:16;;;;;;;12.23;7.00;;;;;;;8.76;87.86;100780.97;127248;1096;64253;-76
2021/05/19 04:22:44;;;;;;;10.20;5.77;;;;;;;8.77;87.88;100790.55;127054;1102;63238;-76
2021/05/19 04:25:11;;;;;;;8.43;4.87;;;;;;;8.82;87.90;100787.41;127676;1101;63148;-74
2021/05/19 04:27:39;;;;;;;9.23;5.73;;;;;;;8.85;88.37;100793.22;127444;1101;64324;-75
2021/05/19 04:30:08;;;;;;;10.83;6.27;;;;;;;8.90;87.30;100787.44;128354;1101;62484;-76
2021/05/19 04:32:35;;;;;;;12.60;7.07;;;;;;;8.92;87.58;100796.86;128404;1101;62064;-75
2021/05/19 04:35:07;;;;;;;9.80;6.47;;;;;;;8.97;87.21;100799.87;128346;1101;62431;-76
2021/05/19 04:37:34;;;;;;;14.13;6.53;;;;;;;8.97;86.85;100804.34;128375;1101;62306;-77
2021/05/19 04:40:04;;;;;;;8.37;4.97;;;;;;;8.95;86.96;100812.43;128394;1101;63270;-77
2021/05/19 04:42:32;;;;;;;10.47;5.90;;;;;;;8.94;87.51;100809.94;128397;1101;62607;-77
2021/05/19 04:45:00;;;;;;;8.63;4.53;;;;;;;8.94;86.97;100816.05;128386;1101;62084;-77
2021/05/19 04:47:27;;;;;;;12.37;6.63;;;;;;;8.96;86.90;100818.55;128397;1101;62043;-75
2021/05/19 04:49:54;;;;;;;12.57;6.27;;;;;;;9.00;87.11;100816.41;128373;1101;62628;-77
2021/05/19 04:52:24;;;;;;;9.87;6.77;;;;;;;9.03;87.02;100822.22;128360;1101;62956;-77
2021/05/19 04:54:51;;;;;;;10.03;5.20;;;;;;;9.09;87.18;100823.37;128207;1101;62593;-77
2021/05/19 04:57:18;;;;;;;9.53;6.00;;;;;;;9.13;87.32;100827.35;128325;1101;62216;-76
2021/05/19 04:59:45;;;;;;;11.17;6.57;;;;;;;9.22;87.27;100829.02;128400;1101;62728;-76
2021/05/19 05:02:12;;;;;;;10.67;5.97;;;;;;;9.29;86.85;100835.33;128302;1101;62247;-76
2021/05/19 05:04:39;;;;;;;11.07;6.57;;;;;;;9.35;86.69;100834.68;128404;1101;62138;-76
2021/05/19 05:07:06;;;;;;;13.47;7.43;;;;;;;9.42;86.77;100829.55;128142;1101;62544;-76
2021/05/19 05:09:33;;;;;;;16.20;8.90;;;;;;;9.50;86.37;100824.27;128414;1101;63528;-76
2021/05/19 05:12:01;;;;;;;10.67;6.67;;;;;;;9.61;86.04;100838.19;128395;1101;62231;-76
2021/05/19 05:14:28;;;;;;;11.03;6.73;;;;;;;9.65;85.19;100831.53;128268;1101;62471;-76
2021/05/19 05:17:01;;;;;;;10.87;6.80;;;;;;;9.68;85.25;100832.04;126442;1101;64203;-76
2021/05/19 05:19:33;;;;;;;16.20;8.93;;;;;;;9.71;85.46;100833.52;127350;1101;63155;-76
2021/05/19 05:22:03;;;;;;;20.10;10.80;;;;;;;9.71;85.52;100834.38;127880;1101;62330;-74
2021/05/19 05:24:30;;;;;;;18.80;10.47;;;;;;;9.73;85.04;100827.09;127976;1101;63367;-76
2021/05/19 05:26:57;;;;;;;16.13;8.20;;;;;;;9.76;84.12;100839.99;128462;1101;61722;-77
2021/05/19 05:29:27;;;;;;;14.27;6.83;;;;;;;9.74;84.75;100834.03;128348;1101;62888;-78
2021/05/19 05:31:54;;;;;;;22.33;12.57;;;;;;;9.76;84.28;100837.34;128345;1101;62571;-79
2021/05/19 05:34:22;;;;;;;22.73;12.07;;;;;;;9.77;84.08;100836.33;128316;1101;62414;-79
2021/05/19 05:36:49;;;;;;;20.13;10.97;;;;;;;9.82;84.41;100840.31;128428;1101;62972;-79
2021/05/19 05:39:16;;;;;;;14.63;8.00;;;;;;;9.83;83.22;100837.50;128357;1101;62238;-79
2021/05/19 05:41:43;;;;;;;27.25;14.00;;;;;;;9.83;83.98;100839.33;128402;1101;64260;-79
2021/05/19 05:44:10;;;;;;;23.83;13.43;;;;;;;9.90;83.98;100842.95;128377;1101;62570;-78
2021/05/19 05:46:37;;;;;;;20.50;10.00;;;;;;;9.93;83.81;100846.11;128353;1101;62693;-79
2021/05/19 05:49:06;;;;;;;21.37;12.70;;;;;;;10.00;83.10;100851.57;128377;1101;62285;-78
2021/05/19 05:51:34;;;;;;;19.13;10.20;;;;;;;10.05;83.18;100851.91;128173;1101;62293;-77
2021/05/19 05:54:02;;;;;;;19.50;11.17;;;;;;;10.09;83.06;100858.50;128357;1101;62808;-77
2021/05/19 05:56:29;;;;;;;17.43;11.50;;;;;;;10.12;82.38;100855.53;128393;1101;62160;-78
2021/05/19 05:58:56;;;;;;;22.47;12.63;;;;;;;10.20;82.31;100847.58;128386;1101;62091;-77
2021/05/19 06:01:23;;;;;;;26.30;16.25;;;;;;;10.25;82.60;100857.67;128381;1101;62489;-77
2021/05/19 06:03:51;;;;;;;23.60;14.53;;;;;;;10.34;82.79;100854.02;128389;1101;62385;-76
2021/05/19 06:06:18;;;;;;;22.47;13.83;;;;;;;10.46;81.95;100857.16;128339;1101;62157;-76
2021/05/19 06:08:45;;;;;;;23.90;14.93;;;;;;;10.52;82.00;100853.83;128411;1101;63001;-77
2021/05/19 06:11:12;;;;;;;19.83;10.17;;;;;;;10.54;81.22;100859.79;128411;1101;62098;-78
2021/05/19 06:13:39;;;;;;;19.70;13.20;;;;;;;10.52;81.56;100861.78;128388;1101;62129;-78
2021/05/19 06:16:06;;;;;;;21.97;13.17;;;;;;;10.66;82.62;100859.41;128371;1101;62360;-78
2021/05/19 06:18:33;;;;;;;21.07;13.30;;;;;;;10.88;82.68;100863.13;128402;1101;62162;-78
2021/05/19 06:21:00;;;;;;;18.90;12.97;;;;;;;11.15;81.79;100861.84;128392;1101;62401;-78
2021/05/19 06:23:28;;;;;;;13.27;8.27;;;;;;;11.31;80.33;100864.41;128360;1101;61957;-78
2021/05/19 06:25:55;;;;;;;21.33;12.43;;;;;;;11.43;80.11;100870.97;128285;1101;62731;-78
2021/05/19 06:28:23;;;;;;;18.90;12.10;;;;;;;11.63;79.02;100878.47;128400;1101;62257;-78
2021/05/19 06:30:50;;;;;;;11.53;7.83;;;;;;;11.64;78.52;100872.14;128391;1101;63237;-77
2021/05/19 06:33:17;;;;;;;17.37;11.10;;;;;;;11.59;78.30;100877.17;128325;1101;62208;-75
2021/05/19 06:35:44;;;;;;;12.50;7.47;;;;;;;11.45;77.00;100875.27;128182;1101;63158;-76
2021/05/19 06:38:11;;;;;;;16.67;12.00;;;;;;;11.49;77.89;100881.88;128348;1101;62424;-76
2021/05/19 06:40:39;;;;;;;16.33;10.10;;;;;;;11.61;77.45;100883.14;128297;1101;61662;-76
2021/05/19 06:43:06;;;;;;;18.60;11.90;;;;;;;11.60;76.21;100878.81;128352;1101;62255;-76
2021/05/19 06:45:35;;;;;;;14.80;9.60;;;;;;;11.69;76.91;100876.91;128351;1101;63643;-77
2021/05/19 06:48:04;;;;;;;11.03;7.40;;;;;;;11.79;76.33;100878.36;127303;1101;64272;-76
2021/05/19 06:50:33;;;;;;;13.63;8.27;;;;;;;11.91;76.42;100885.93;128253;1101;64186;-76
2021/05/19 06:53:01;;;;;;;16.97;11.60;;;;;;;11.93;75.78;100874.11;128457;1101;62313;-75
2021/05/19 06:55:28;;;;;;;19.27;11.57;;;;;;;12.00;75.29;100884.84;128417;1101;63601;-75
2021/05/19 06:57:56;;;;;;;14.37;9.47;;;;;;;12.08;74.35;100876.80;128464;1101;62604;-76
2021/05/19 07:00:23;;;;;;;13.43;8.40;;;;;;;12.12;73.12;100875.44;128334;1101;62596;-75
2021/05/19 07:02:50;;;;;;;15.17;10.50;;;;;;;12.25;73.28;100877.47;128356;1101;62062;-75
2021/05/19 07:05:18;;;;;;;15.47;9.87;;;;;;;12.34;72.55;100886.19;128437;1101;62414;-76
2021/05/19 07:07:46;;;;;;;9.63;7.33;;;;;;;12.51;72.03;100877.02;128476;1101;62688;-75
2021/05/19 07:10:15;;;;;;;9.93;6.80;;;;;;;12.68;72.09;100882.17;128387;1101;62249;-75
2021/05/19 07:12:43;;;;;;;15.83;10.80;;;;;;;12.90;71.42;100883.91;128146;1102;62338;-77
2021/05/19 07:15:14;;;;;;;15.17;8.50;;;;;;;12.96;70.73;100888.50;128098;1101;62657;-77
2021/05/19 07:17:42;;;;;;;11.17;7.33;;;;;;;12.87;69.25;100892.25;128321;1101;62038;-77
2021/05/19 07:20:11;;;;;;;15.83;9.17;;;;;;;12.87;69.84;100892.25;128294;1101;62348;-77
2021/05/19 07:22:40;;;;;;;18.87;10.43;;;;;;;12.89;70.09;100894.73;128304;1101;62317;-76
2021/05/19 07:25:08;;;;;;;12.37;7.37;;;;;;;12.95;70.09;100886.83;128583;1101;62081;-77
2021/05/19 07:27:36;;;;;;;11.07;7.30;;;;;;;13.07;69.49;100887.20;128716;1101;62015;-77
2021/05/19 07:30:04;;;;;;;16.77;9.17;;;;;;;13.26;68.66;100891.11;128168;1103;62535;-77
2021/05/19 07:32:31;;;;;;;9.47;6.10;;;;;;;13.47;65.21;100887.65;128467;1101;62472;-76
2021/05/19 07:34:58;;;;;;;10.47;6.23;;;;;;;13.66;65.42;100886.20;128434;1101;62057;-76
2021/05/19 07:37:25;;;;;;;10.23;7.13;;;;;;;13.72;65.41;100893.44;128491;1101;62026;-76
2021/05/19 07:39:52;;;;;;;11.53;7.33;;;;;;;13.66;64.64;100891.53;128450;1101;62182;-77
2021/05/19 07:42:19;;;;;;;10.93;6.90;;;;;;;13.51;66.50;100894.25;128474;1101;62579;-76
2021/05/19 07:44:47;;;;;;;7.77;5.20;;;;;;;13.32;62.96;100906.34;128390;1101;63920;-76
2021/05/19 07:47:13;;;;;;;8.68;5.20;;;;;;;13.32;64.69;100894.87;128383;1101;62821;-76
2021/05/19 07:49:40;;;;;;;11.30;6.77;;;;;;;13.34;63.75;100898.98;128324;1101;62324;-76
2021/05/19 07:52:06;;;;;;;9.47;5.80;;;;;;;13.43;65.11;100897.03;128363;1101;62547;-75
2021/05/19 07:54:35;;;;;;;5.13;3.40;;;;;;;13.39;62.03;100896.61;128746;1101;61984;-75
2021/05/19 07:57:07;;;;;;;6.93;4.77;;;;;;;13.56;61.97;100896.38;128539;1101;62563;-75
2021/05/19 07:59:34;;;;;;;7.23;4.77;;;;;;;13.69;62.23;100896.50;128449;1101;62706;-76
2021/05/19 08:02:08;;;;;;;6.00;4.10;;;;;;;13.62;59.30;100895.59;128446;1101;62209;-74
2021/05/19 08:04:38;;;;;;;6.60;3.73;;;;;;;13.43;58.45;100900.55;128416;1101;62476;-75
2021/05/19 08:07:05;;;;;;;5.70;3.70;;;;;;;13.55;59.27;100894.70;128486;1101;62340;-76
2021/05/19 08:09:31;;;;;;;4.03;2.70;;;;;;;13.72;59.54;100889.95;128439;1101;62416;-76
2021/05/19 08:11:58;;;;;;;6.57;3.83;;;;;;;13.84;59.28;100893.77;128379;1101;62689;-77
2021/05/19 08:14:29;;;;;;;6.93;3.57;;;;;;;13.98;57.60;100892.02;128411;1101;62387;-76
2021/05/19 08:16:57;;;;;;;6.00;3.23;;;;;;;14.03;56.75;100901.11;128472;1101;61667;-77
2021/05/19 08:19:25;;;;;;;6.53;4.47;;;;;;;14.24;58.61;100905.58;128523;1101;62089;-77
2021/05/19 08:21:52;;;;;;;5.65;3.20;;;;;;;14.30;58.18;100895.14;128170;1101;62534;-76
2021/05/19 08:24:19;;;;;;;7.07;4.23;;;;;;;14.20;57.07;100898.98;128176;1101;62037;-77
2021/05/19 08:26:47;;;;;;;7.33;3.43;;;;;;;14.12;56.71;100900.97;128223;1101;63014;-77
2021/05/19 08:29:14;;;;;;;5.47;3.00;;;;;;;14.04;55.72;100893.92;128462;1101;61848;-78
2021/05/19 08:31:41;;;;;;;3.77;2.47;;;;;;;14.17;53.96;100894.02;128439;1101;62509;-78
2021/05/19 08:34:12;;;;;;;4.80;3.00;;;;;;;14.38;55.24;100886.98;128321;1101;62523;-78
2021/05/19 08:36:41;;;;;;;4.37;2.73;;;;;;;14.56;54.01;100881.20;128475;1101;62320;-77
2021/05/19 08:39:08;;;;;;;4.43;2.67;;;;;;;14.55;55.23;100892.84;128488;1101;61864;-77
2021/05/19 08:41:37;;;;;;;3.03;2.17;;;;;;;14.46;55.15;100882.32;128207;1101;64048;-75
2021/05/19 08:44:07;;;;;;;4.87;2.10;;;;;;;14.43;55.34;100887.25;128391;1101;62366;-75
2021/05/19 08:46:35;;;;;;;4.17;2.23;;;;;;;14.53;54.57;100898.38;128427;1101;62600;-75
2021/05/19 08:49:05;;;;;;;3.97;2.10;;;;;;;14.70;54.03;100890.09;128460;1101;62415;-74
2021/05/19 08:51:33;;;;;;;3.43;2.33;;;;;;;14.95;53.38;100880.55;128484;1101;62247;-74
2021/05/19 08:54:01;;;;;;;3.23;2.20;;;;;;;14.97;52.44;100883.84;128427;1101;62508;-75
2021/05/19 08:56:28;;;;;;;4.23;1.90;;;;;;;14.78;52.73;100879.25;128449;1101;62559;-74
2021/05/19 08:58:56;;;;;;;2.87;1.70;;;;;;;14.56;52.53;100884.69;128477;1101;62172;-75
2021/05/19 09:01:25;;;;;;;3.60;1.60;;;;;;;14.53;54.40;100882.36;128474;1101;62195;-75
2021/05/19 09:04:07;;;;;;;3.50;2.37;;;;;;;14.53;54.58;100887.70;128235;1102;62205;-76
2021/05/19 09:06:36;;;;;;;4.37;2.50;;;;;;;14.77;54.75;100877.59;128493;1101;62420;-76
2021/05/19 09:09:27;;;;;;;3.90;2.27;;;;;;;14.91;52.88;100881.97;128108;1101;62490;-77
2021/05/19 09:12:03;;;;;;;4.77;2.10;;;;;;;14.92;52.34;100886.31;128414;1101;63579;-77
2021/05/19 09:14:33;;;;;;;3.23;2.23;;;;;;;14.85;50.49;100880.94;128397;1101;62276;-77
2021/05/19 09:17:23;;;;;;;2.80;1.93;;;;;;;14.82;52.08;100875.16;128459;1101;62442;-78
2021/05/19 09:20:05;;;;;;;3.50;2.30;;;;;;;14.91;52.79;100873.14;128470;1101;62203;-75
2021/05/19 09:22:36;;;;;;;3.77;2.10;;;;;;;15.00;51.37;100872.78;128500;1101;62514;-77
2021/05/19 09:25:29;;;;;;;3.63;2.47;;;;;;;15.05;50.45;100875.66;128514;1101;64668;-76
2021/05/19 09:27:59;;;;;;;2.67;1.67;;;;;;;15.15;50.47;100885.14;128379;1101;62506;-76
2021/05/19 09:30:39;;;;;;;2.60;1.20;;;;;;;14.98;48.21;100882.00;128402;1101;62649;-77
2021/05/19 09:33:24;;;;;;;3.57;1.53;;;;;;;14.94;49.06;100878.92;128514;1101;62231;-75
2021/05/19 09:36:09;;;;;;;;;;;;;;;14.82;50.47;100883.17;128531;1101;62381;-75
2021/05/19 09:38:36;;;;;;;2.75;1.35;;;;;;;14.63;52.44;100877.52;128455;1101;62903;-77
2021/05/19 09:41:17;;;;;;;3.33;1.60;;;;;;;14.47;52.45;100883.14;128487;1101;62423;-77
2021/05/19 09:43:45;;;;;;;4.60;1.70;;;;;;;14.15;52.89;100877.38;128453;1101;62469;-78
2021/05/19 09:46:16;;;;;;;10.40;3.33;;;;;;;14.00;54.15;100892.66;128470;1101;62417;-75
2021/05/19 09:48:44;;;;;;;3.60;1.73;;;;;;;13.86;54.80;100881.88;128503;1101;61848;-78
2021/05/19 09:51:25;;;;;;;3.77;1.70;;;;;;;13.83;55.02;100887.61;128456;1101;62486;-78
2021/05/19 09:53:53;;;;;;;2.83;1.60;;;;;;;13.84;53.67;100886.58;128498;1101;62382;-78
2021/05/19 09:56:21;;;;;;;2.50;1.13;;;;;;;13.93;54.11;100886.45;128466;1101;62205;-78
2021/05/19 09:58:48;;;;;;;3.73;1.40;;;;;;;14.06;53.88;100883.89;128505;1101;62133;-78
2021/05/19 10:01:15;;;;;;;2.30;1.20;;;;;;;14.18;53.64;100887.68;128476;1101;62102;-76
2021/05/19 10:03:44;;;;;;;3.27;1.60;;;;;;;14.32;53.37;100879.77;128487;1101;62363;-77
2021/05/19 10:06:28;;;;;;;3.43;1.40;;;;;;;14.41;52.91;100891.95;128497;1101;62073;-75
2021/05/19 10:09:06;;;;;;;;;;;;;;;14.60;52.80;100893.95;128515;1101;62112;-75
2021/05/19 10:11:33;;;;;;;3.13;1.47;;;;;;;14.72;52.33;100880.85;128538;1101;62132;-77
2021/05/19 10:14:03;;;;;;;3.07;1.47;;;;;;;15.00;51.74;100872.78;128475;1101;62252;-77
2021/05/19 10:16:31;;;;;;;2.20;1.07;;;;;;;15.44;51.40;100874.13;128486;1101;62130;-77
2021/05/19 10:19:05;;;;;;;3.63;1.33;;;;;;;15.79;49.75;100874.02;128477;1101;62144;-77
2021/05/19 10:21:36;;;;;;;3.30;1.53;;;;;;;16.04;46.93;100862.67;128534;1101;62534;-77
2021/05/19 10:24:12;;;;;;;2.07;1.27;;;;;;;16.29;47.46;100871.70;128521;1101;62249;-77
2021/05/19 10:27:07;;;;;;;3.23;0.80;;;;;;;16.63;46.05;100871.64;128560;1101;62259;-78
2021/05/19 10:29:47;;;;;;;1.25;0.80;;;;;;;16.88;42.85;100856.54;128539;1101;62209;-78
2021/05/19 10:32:20;;;;;;;3.03;1.10;;;;;;;17.06;42.82;100861.19;128528;1101;62730;-78
2021/05/19 10:34:55;;;;;;;1.47;0.77;;;;;;;16.96;42.24;100855.48;128526;1101;62274;-78
2021/05/19 10:37:28;;;;;;;2.03;1.00;;;;;;;16.77;42.96;100857.18;128241;1102;64068;-78
2021/05/19 10:40:07;;;;;;;2.17;0.80;;;;;;;16.60;44.14;100846.11;128428;1101;62100;-78
2021/05/19 10:42:36;;;;;;;2.53;1.27;;;;;;;16.82;44.42;100853.89;128526;1101;62081;-79
2021/05/19 10:45:07;;;;;;;2.73;1.00;;;;;;;16.99;44.94;100855.05;128578;1101;62182;-79
2021/05/19 10:47:36;;;;;;;3.03;1.60;;;;;;;17.11;45.39;100852.53;128503;1101;63987;-80
2021/05/19 10:50:22;;;;;;;4.40;1.80;;;;;;;17.40;45.66;100848.42;128468;1101;62254;-80
2021/05/19 10:58:51;;;;;;;2.30;1.00;;;;;;;17.82;43.57;100842.55;128358;1101;62160;-77
2021/05/19 11:01:42;;;;;;;2.20;0.88;;;;;;;17.50;41.53;100834.55;128504;1101;62200;-77
2021/05/19 11:04:16;;;;;;;1.63;0.80;;;;;;;17.44;42.56;100836.22;128431;1101;62122;-76
2021/05/19 11:07:01;;;;;;;1.73;0.77;;;;;;;17.50;41.83;100835.36;128330;1101;62220;-76
2021/05/19 11:09:29;;;;;;;1.43;0.57;;;;;;;17.55;42.33;100828.52;128458;1101;62175;-76
2021/05/19 11:12:25;;;;;;;3.60;1.30;;;;;;;17.47;40.56;100824.27;128450;1101;62233;-77
2021/05/19 11:15:02;;;;;;;2.03;0.90;;;;;;;17.72;41.60;100834.98;128486;1101;62097;-77
2021/05/19 11:20:07;;;;;;;2.13;0.90;;;;;;;17.86;40.57;100823.14;128407;1101;62276;-78
2021/05/19 11:22:35;;;;;;;1.20;0.65;;;;;;;17.82;40.79;100821.09;128306;1101;62457;-77
2021/05/19 11:25:05;;;;;;;3.07;0.83;;;;;;;17.71;41.95;100827.99;128370;1101;62918;-77
2021/05/19 11:27:36;;;;;;;2.30;0.90;;;;;;;17.58;41.34;100825.42;128438;1101;62713;-77
2021/05/19 11:30:07;;;;;;;2.97;1.27;;;;;;;17.44;41.76;100819.31;128325;1101;62420;-76
2021/05/19 11:32:35;;;;;;;1.70;0.90;;;;;;;17.45;42.74;100815.61;128465;1101;62179;-76
2021/05/19 11:35:12;;;;;;;2.23;1.10;;;;;;;17.37;41.36;100827.41;128492;1101;61989;-76
2021/05/19 11:37:57;;;;;;;3.70;1.10;;;;;;;17.23;41.49;100832.02;128261;1101;63098;-76
2021/05/19 11:40:40;;;;;;;2.93;1.03;;;;;;;16.96;41.76;100823.33;128379;1101;62309;-77